Pan Freesia — V7SB5 — position and weather

sailwx.info

Track history (hours):
 
Tides and Currents Weather Stations Pressure Air Temp Water Temp Dewpoint Dewpoint Depression Visibility Wind Speed Wind Dir Waves Ship Positions

Pan Freesia

Last reported at 2017-Dec-07 22:05 UTC. Time now 2018-Feb-22 19:26 UTC.
Position S 22°35' E 154°13'.
Warning: this ship's position is months out of date.

Length 292 m; draft 10.3 m.

Type: Cargo ship. MMSI: 538003616.

Date/timePositionNaut miles runAvg speedWind from/ knotsBaromVisibWave heightAir tempDewpointWater temp
2017-Dec-07 22:05S 22°35' E 154°13'112.0
2017-Dec-07 22:00S 22°35' E 154°13'712.2
2017-Dec-07 21:25S 22°43' E 154°13'512.2
2017-Dec-07 21:01S 22°48' E 154°14'612.3
2017-Dec-07 20:31S 22°54' E 154°14'713.1
2017-Dec-07 20:00S 23°00' E 154°14'612.6
2017-Dec-07 19:30S 23°07' E 154°15'612.3
2017-Dec-07 19:01S 23°13' E 154°15'612.2
2017-Dec-07 18:31S 23°19' E 154°15'612.4
2017-Dec-07 18:00S 23°25' E 154°16'612.2
2017-Dec-07 17:30S 23°31' E 154°16'712.3
2017-Dec-07 16:56S 23°38' E 154°16'612.7
2017-Dec-07 16:27S 23°44' E 154°17'912.9
2017-Dec-07 15:44S 23°53' E 154°17'1312.7
2017-Dec-07 14:44S 24°06' E 154°18'512.7
2017-Dec-07 14:23S 24°11' E 154°18'513.0
2017-Dec-07 14:01S 24°15' E 154°18'1712.6
2017-Dec-07 12:40S 24°32' E 154°19'1712.3
2017-Dec-07 11:18S 24°49' E 154°21'412.4
2017-Dec-07 10:59S 24°53' E 154°21'612.4
2017-Dec-07 10:30S 24°59' E 154°21'712.2
2017-Dec-07 09:54S 25°06' E 154°21'712.0
2017-Dec-07 09:19S 25°13' E 154°22'411.9
2017-Dec-07 09:00S 25°17' E 154°22'611.8
2017-Dec-07 08:29S 25°23' E 154°22'1312.0
2017-Dec-07 07:23S 25°36' E 154°23'512.3
2017-Dec-07 07:01S 25°41' E 154°23'712.7
2017-Dec-07 06:29S 25°48' E 154°24'613.1
2017-Dec-07 06:01S 25°54' E 154°24'713.3
2017-Dec-07 05:30S 26°01' E 154°24'713.3
2017-Dec-07 05:01S 26°07' E 154°25'713.1
2017-Dec-07 04:31S 26°14' E 154°25'612.9
2017-Dec-07 04:01S 26°20' E 154°25'612.8
2017-Dec-07 03:31S 26°26' E 154°26'713.1
2017-Dec-07 03:01S 26°33' E 154°26'713.1
2017-Dec-07 02:30S 26°40' E 154°27'1812.8
2017-Dec-07 01:08S 26°57' E 154°27'212.5
2017-Dec-07 00:58S 26°59' E 154°28'1512.4
2017-Dec-06 23:44S 27°15' E 154°29'312.3
2017-Dec-06 23:30S 27°17' E 154°29'612.4
2017-Dec-06 23:01S 27°23' E 154°29'612.2
2017-Dec-06 22:31S 27°30' E 154°29'612.0
2017-Dec-06 22:01S 27°36' E 154°30'611.9
2017-Dec-06 21:31S 27°42' E 154°29'612.1
2017-Dec-06 21:01S 27°47' E 154°28'  
2017-Dec-04 10:22S 32°53' E 151°46'0 0.0
2017-Dec-04 09:58S 32°53' E 151°46'0 0.0
2017-Dec-04 09:28S 32°53' E 151°46'0 0.0
2017-Dec-04 09:01S 32°53' E 151°46'1 2.2
2017-Dec-04 08:31S 32°54' E 151°46'3 5.5
2017-Dec-04 08:00S 32°55' E 151°49'5 9.7
2017-Dec-04 07:30S 32°59' E 151°53'5 9.3
2017-Dec-04 07:01S 32°58' E 151°58'611.9
2017-Dec-04 06:31S 32°57' E 152°05'611.9
2017-Dec-04 06:01S 32°56' E 152°12'713.0
2017-Dec-04 05:31S 32°55' E 152°20'713.5
2017-Dec-04 05:00S 32°54' E 152°28'713.4
2017-Dec-04 04:31S 32°53' E 152°35'  
Track history (hours):
 
Tides and Currents Weather Stations Pressure Air Temp Water Temp Dewpoint Dewpoint Depression Visibility Wind Speed Wind Dir Waves Ship Positions

Pan Freesia

Last reported at 2017-Dec-07 22:05 UTC. Time now 2018-Feb-22 19:26 UTC.
Position S 22°35' E 154°13'.
Warning: this ship's position is months out of date.

Length 292 m; draft 10.3 m.

Type: Cargo ship. MMSI: 538003616.

Date/timePositionNaut miles runAvg speedWind from/ knotsBaromVisibWave heightAir tempDewpointWater temp
2017-Dec-07 22:05S 22°35' E 154°13'112.0
2017-Dec-07 22:00S 22°35' E 154°13'712.2
2017-Dec-07 21:25S 22°43' E 154°13'512.2
2017-Dec-07 21:01S 22°48' E 154°14'612.3
2017-Dec-07 20:31S 22°54' E 154°14'713.1
2017-Dec-07 20:00S 23°00' E 154°14'612.6
2017-Dec-07 19:30S 23°07' E 154°15'612.3
2017-Dec-07 19:01S 23°13' E 154°15'612.2
2017-Dec-07 18:31S 23°19' E 154°15'612.4
2017-Dec-07 18:00S 23°25' E 154°16'612.2
2017-Dec-07 17:30S 23°31' E 154°16'712.3
2017-Dec-07 16:56S 23°38' E 154°16'612.7
2017-Dec-07 16:27S 23°44' E 154°17'912.9
2017-Dec-07 15:44S 23°53' E 154°17'1312.7
2017-Dec-07 14:44S 24°06' E 154°18'512.7
2017-Dec-07 14:23S 24°11' E 154°18'513.0
2017-Dec-07 14:01S 24°15' E 154°18'1712.6
2017-Dec-07 12:40S 24°32' E 154°19'1712.3
2017-Dec-07 11:18S 24°49' E 154°21'412.4
2017-Dec-07 10:59S 24°53' E 154°21'612.4
2017-Dec-07 10:30S 24°59' E 154°21'712.2
2017-Dec-07 09:54S 25°06' E 154°21'712.0
2017-Dec-07 09:19S 25°13' E 154°22'411.9
2017-Dec-07 09:00S 25°17' E 154°22'611.8
2017-Dec-07 08:29S 25°23' E 154°22'1312.0
2017-Dec-07 07:23S 25°36' E 154°23'512.3
2017-Dec-07 07:01S 25°41' E 154°23'712.7
2017-Dec-07 06:29S 25°48' E 154°24'613.1
2017-Dec-07 06:01S 25°54' E 154°24'713.3
2017-Dec-07 05:30S 26°01' E 154°24'713.3
2017-Dec-07 05:01S 26°07' E 154°25'713.1
2017-Dec-07 04:31S 26°14' E 154°25'612.9
2017-Dec-07 04:01S 26°20' E 154°25'612.8
2017-Dec-07 03:31S 26°26' E 154°26'713.1
2017-Dec-07 03:01S 26°33' E 154°26'713.1
2017-Dec-07 02:30S 26°40' E 154°27'1812.8
2017-Dec-07 01:08S 26°57' E 154°27'212.5
2017-Dec-07 00:58S 26°59' E 154°28'1512.4
2017-Dec-06 23:44S 27°15' E 154°29'312.3
2017-Dec-06 23:30S 27°17' E 154°29'612.4
2017-Dec-06 23:01S 27°23' E 154°29'612.2
2017-Dec-06 22:31S 27°30' E 154°29'612.0
2017-Dec-06 22:01S 27°36' E 154°30'611.9
2017-Dec-06 21:31S 27°42' E 154°29'612.1
2017-Dec-06 21:01S 27°47' E 154°28'  
2017-Dec-04 10:22S 32°53' E 151°46'0 0.0
2017-Dec-04 09:58S 32°53' E 151°46'0 0.0
2017-Dec-04 09:28S 32°53' E 151°46'0 0.0
2017-Dec-04 09:01S 32°53' E 151°46'1 2.2
2017-Dec-04 08:31S 32°54' E 151°46'3 5.5
2017-Dec-04 08:00S 32°55' E 151°49'5 9.7
2017-Dec-04 07:30S 32°59' E 151°53'5 9.3
2017-Dec-04 07:01S 32°58' E 151°58'611.9
2017-Dec-04 06:31S 32°57' E 152°05'611.9
2017-Dec-04 06:01S 32°56' E 152°12'713.0
2017-Dec-04 05:31S 32°55' E 152°20'713.5
2017-Dec-04 05:00S 32°54' E 152°28'713.4
2017-Dec-04 04:31S 32°53' E 152°35'  

Dump ship's entire track history